createdAt,value
2019-02-19T00:02:19.645Z,106.97
2019-02-19T00:04:46.921Z,122.83
2019-02-19T00:07:14.193Z,116.93
2019-02-19T00:09:41.587Z,107.17
2019-02-19T00:12:08.938Z,110.80
2019-02-19T00:14:36.197Z,122.27
2019-02-19T00:17:03.451Z,101.80
2019-02-19T00:19:30.818Z,96.90
2019-02-19T00:21:58.090Z,112.83
2019-02-19T00:24:25.440Z,105.37
2019-02-19T00:26:52.885Z,105.10
2019-02-19T00:29:20.174Z,108.03
2019-02-19T00:31:47.433Z,104.63
2019-02-19T00:34:14.869Z,98.47
2019-02-19T00:36:42.109Z,91.07
2019-02-19T00:39:09.336Z,92.87
2019-02-19T00:41:36.582Z,95.37
2019-02-19T00:44:03.951Z,105.97
2019-02-19T00:46:31.190Z,104.27
2019-02-19T00:48:58.701Z,133.67
2019-02-19T00:51:26.069Z,118.80
2019-02-19T00:53:53.306Z,124.37
2019-02-19T00:56:21.264Z,112.60
2019-02-19T00:58:48.628Z,121.30
2019-02-19T01:01:15.881Z,121.97
2019-02-19T01:03:43.286Z,108.60
2019-02-19T01:06:10.621Z,110.10
2019-02-19T01:08:38.030Z,107.60
2019-02-19T01:11:05.386Z,104.03
2019-02-19T01:13:32.773Z,120.37
2019-02-19T01:16:00.061Z,126.87
2019-02-19T01:18:27.301Z,107.10
2019-02-19T01:20:54.554Z,108.17
2019-02-19T01:23:21.941Z,108.83
2019-02-19T01:25:49.305Z,107.63
2019-02-19T01:28:16.656Z,118.13
2019-02-19T01:30:44.119Z,102.87
2019-02-19T01:33:11.482Z,108.50
2019-02-19T01:35:38.756Z,102.53
2019-02-19T01:38:06.007Z,113.23
2019-02-19T01:40:33.337Z,124.27
2019-02-19T01:43:00.770Z,127.00
2019-02-19T01:45:33.882Z,114.73
2019-02-19T01:47:57.501Z,122.37
2019-02-19T01:50:24.810Z,124.53
2019-02-19T01:52:52.088Z,120.83
2019-02-19T01:55:19.490Z,123.60
2019-02-19T01:57:46.803Z,118.57
2019-02-19T02:00:14.357Z,128.27
2019-02-19T02:02:41.779Z,116.93
2019-02-19T02:05:09.201Z,121.27
2019-02-19T02:07:36.502Z,136.20
2019-02-19T02:10:04.302Z,130.33
2019-02-19T02:12:31.589Z,124.33
2019-02-19T02:15:00.282Z,137.20
2019-02-19T02:17:27.626Z,125.07
2019-02-19T02:19:55.898Z,132.63
2019-02-19T02:22:23.158Z,125.13
2019-02-19T02:24:50.714Z,128.97
2019-02-19T02:27:18.213Z,128.53
2019-02-19T02:29:45.440Z,113.87
2019-02-19T02:32:12.713Z,109.13
2019-02-19T02:34:40.128Z,127.37
2019-02-19T02:37:07.499Z,120.23
2019-02-19T02:39:34.937Z,119.57
2019-02-19T02:42:02.298Z,137.50
2019-02-19T02:44:29.577Z,119.80
2019-02-19T02:46:57.004Z,118.70
2019-02-19T02:49:24.255Z,116.27
2019-02-19T02:51:51.513Z,136.97
2019-02-19T02:54:18.784Z,120.90
2019-02-19T02:56:46.050Z,113.03
2019-02-19T02:59:13.286Z,122.17
2019-02-19T03:01:40.573Z,117.80
2019-02-19T03:04:08.062Z,119.47
2019-02-19T03:06:43.098Z,131.10
2019-02-19T03:09:10.375Z,125.93
2019-02-19T03:11:37.628Z,124.90
2019-02-19T03:14:05.002Z,129.63
2019-02-19T03:16:32.562Z,127.80
2019-02-19T03:18:59.814Z,119.00
2019-02-19T03:21:27.245Z,129.23
2019-02-19T03:23:54.558Z,133.00
2019-02-19T03:26:21.811Z,111.63
2019-02-19T03:28:49.255Z,124.37
2019-02-19T03:31:16.628Z,113.93
2019-02-19T03:33:44.097Z,110.80
2019-02-19T03:36:11.470Z,111.23
2019-02-19T03:38:38.726Z,117.57
2019-02-19T03:41:06.112Z,117.10
2019-02-19T03:43:33.921Z,107.50
2019-02-19T03:46:01.174Z,118.37
2019-02-19T03:48:28.447Z,111.27
2019-02-19T03:50:58.638Z,110.63
2019-02-19T03:53:26.124Z,115.10
2019-02-19T03:55:53.687Z,107.80
2019-02-19T03:58:20.924Z,120.00
2019-02-19T04:00:48.278Z,116.53
2019-02-19T04:03:15.642Z,128.63
2019-02-19T04:05:43.104Z,112.87
2019-02-19T04:08:10.754Z,114.13
2019-02-19T04:10:40.083Z,103.47
2019-02-19T04:13:07.492Z,123.90
2019-02-19T04:15:35.102Z,118.03
2019-02-19T04:18:02.502Z,101.90
2019-02-19T04:20:29.890Z,113.10
2019-02-19T04:22:57.403Z,124.97
2019-02-19T04:25:24.730Z,110.20
2019-02-19T04:27:52.259Z,95.67
2019-02-19T04:30:19.531Z,101.37
2019-02-19T04:32:46.759Z,104.77
2019-02-19T04:35:14.121Z,123.30
2019-02-19T04:37:41.470Z,109.37
2019-02-19T04:40:08.739Z,107.00
2019-02-19T04:42:36.049Z,119.40
2019-02-19T04:45:03.370Z,101.13
2019-02-19T04:47:30.755Z,109.63
2019-02-19T04:49:58.174Z,115.13
2019-02-19T04:52:25.490Z,103.97
2019-02-19T04:54:52.745Z,92.90
2019-02-19T04:57:20.824Z,113.07
2019-02-19T04:59:48.142Z,97.67
2019-02-19T05:02:15.507Z,109.07
2019-02-19T05:04:43.069Z,104.97
2019-02-19T05:07:10.376Z,98.90
2019-02-19T05:09:37.794Z,111.13
2019-02-19T05:12:05.314Z,101.87
2019-02-19T05:14:32.598Z,122.17
2019-02-19T05:16:59.854Z,110.90
2019-02-19T05:19:27.307Z,117.27
2019-02-19T05:21:54.910Z,100.67
2019-02-19T05:24:22.438Z,106.63
2019-02-19T05:26:49.858Z,109.77
2019-02-19T05:29:17.120Z,93.00
2019-02-19T05:31:44.654Z,106.97
2019-02-19T05:34:12.029Z,98.33
2019-02-19T05:36:39.274Z,100.03
2019-02-19T05:39:06.521Z,97.27
2019-02-19T05:41:33.906Z,108.13
2019-02-19T05:44:01.199Z,99.87
2019-02-19T05:46:28.519Z,102.57
2019-02-19T05:48:55.989Z,103.97
2019-02-19T05:51:23.267Z,97.10
2019-02-19T05:53:50.526Z,92.63
2019-02-19T05:56:17.932Z,93.27
2019-02-19T05:58:45.254Z,95.63
2019-02-19T06:01:12.466Z,101.73
2019-02-19T06:03:39.865Z,98.57
2019-02-19T06:06:07.294Z,98.10
2019-02-19T06:08:34.601Z,86.77
2019-02-19T06:11:02.003Z,103.23
2019-02-19T06:13:29.374Z,98.50
2019-02-19T06:15:56.682Z,100.53
2019-02-19T06:18:23.939Z,102.50
2019-02-19T06:20:51.198Z,92.80
2019-02-19T06:23:18.546Z,102.13
2019-02-19T06:25:45.903Z,89.43
2019-02-19T06:28:13.138Z,97.90
2019-02-19T06:30:40.382Z,97.13
2019-02-19T06:33:07.665Z,95.43
2019-02-19T06:35:35.062Z,102.07
2019-02-19T06:38:02.307Z,104.07
2019-02-19T06:40:29.657Z,110.40
2019-02-19T06:42:57.073Z,102.77
2019-02-19T06:45:24.388Z,95.77
2019-02-19T06:47:51.648Z,110.83
2019-02-19T06:50:19.258Z,100.10
2019-02-19T06:52:46.535Z,92.40
2019-02-19T06:55:13.924Z,94.63
2019-02-19T06:57:41.305Z,90.37
2019-02-19T07:00:09.082Z,100.30
2019-02-19T07:02:42.438Z,98.77
2019-02-19T07:05:15.456Z,101.40
2019-02-19T07:07:42.770Z,94.23
2019-02-19T07:10:10.423Z,95.87
2019-02-19T07:12:37.859Z,97.57
2019-02-19T07:15:05.653Z,91.87
2019-02-19T07:17:33.031Z,99.47
2019-02-19T07:20:00.372Z,92.93
2019-02-19T07:22:27.612Z,101.67
2019-02-19T07:24:54.977Z,98.13
2019-02-19T07:27:22.442Z,98.23
2019-02-19T07:29:49.962Z,102.10
2019-02-19T07:32:17.326Z,95.30
2019-02-19T07:34:44.654Z,87.30
2019-02-19T07:37:11.902Z,100.03
2019-02-19T07:39:39.199Z,112.87
2019-02-19T07:42:06.688Z,104.13
2019-02-19T07:44:34.054Z,96.40
2019-02-19T07:47:01.321Z,107.80
2019-02-19T07:49:28.594Z,92.17
2019-02-19T07:51:56.034Z,95.10
2019-02-19T07:54:23.490Z,97.03
2019-02-19T07:56:50.878Z,91.27
2019-02-19T07:59:18.333Z,99.03
2019-02-19T08:01:45.713Z,105.30
2019-02-19T08:04:13.076Z,103.20
2019-02-19T08:06:40.475Z,108.83
2019-02-19T08:09:10.812Z,109.23
2019-02-19T08:11:38.101Z,109.27
2019-02-19T08:14:05.343Z,103.03
2019-02-19T08:16:32.731Z,109.43
2019-02-19T08:18:59.992Z,102.47
2019-02-19T08:21:27.321Z,100.40
2019-02-19T08:23:54.676Z,97.07
2019-02-19T08:26:22.094Z,92.77
2019-02-19T08:28:49.390Z,75.23
2019-02-19T08:31:16.729Z,89.60
2019-02-19T08:33:44.170Z,99.03
2019-02-19T08:36:11.409Z,95.40
2019-02-19T08:38:38.733Z,90.97
2019-02-19T08:41:06.098Z,81.60
2019-02-19T08:43:33.333Z,86.83
2019-02-19T08:46:00.650Z,81.90
2019-02-19T08:48:27.911Z,81.83
2019-02-19T08:50:55.289Z,74.37
2019-02-19T08:53:22.553Z,76.00
2019-02-19T08:55:49.792Z,80.13
2019-02-19T08:58:17.421Z,80.10
2019-02-19T09:00:44.774Z,62.50
2019-02-19T09:03:12.206Z,60.97
2019-02-19T09:05:39.614Z,62.97
2019-02-19T09:08:07.023Z,53.37
2019-02-19T09:10:34.273Z,55.47
2019-02-19T09:13:01.543Z,52.77
2019-02-19T09:15:28.951Z,49.10
2019-02-19T09:17:56.353Z,47.70
2019-02-19T09:20:23.858Z,42.53
2019-02-19T09:22:51.282Z,41.93
2019-02-19T09:25:18.503Z,36.17
2019-02-19T09:27:45.733Z,38.37
2019-02-19T09:30:12.962Z,37.97
2019-02-19T09:32:40.331Z,33.17
2019-02-19T09:35:08.195Z,33.60
2019-02-19T09:37:35.664Z,34.70
2019-02-19T09:40:03.883Z,33.07
2019-02-19T09:42:31.166Z,33.30
2019-02-19T09:44:58.429Z,30.50
2019-02-19T09:47:25.726Z,28.70
2019-02-19T09:49:53.059Z,29.40
2019-02-19T09:52:20.474Z,34.67
2019-02-19T09:54:47.926Z,30.97
2019-02-19T09:57:15.202Z,29.27
2019-02-19T09:59:42.585Z,26.80
2019-02-19T10:02:10.130Z,26.87
2019-02-19T10:04:37.569Z,28.17
2019-02-19T10:07:04.876Z,27.43
2019-02-19T10:09:32.281Z,31.27
2019-02-19T10:11:59.661Z,26.47
2019-02-19T10:14:26.898Z,26.03
2019-02-19T10:16:54.230Z,24.50
2019-02-19T10:19:21.569Z,26.60
2019-02-19T10:21:48.837Z,30.53
2019-02-19T10:24:16.093Z,26.87
2019-02-19T10:26:43.347Z,25.40
2019-02-19T10:29:10.586Z,24.93
2019-02-19T10:31:37.865Z,24.60
2019-02-19T10:34:05.133Z,22.77
2019-02-19T10:36:32.494Z,19.07
2019-02-19T10:38:59.719Z,20.50
2019-02-19T10:41:26.982Z,20.13
2019-02-19T10:43:54.373Z,19.73
2019-02-19T10:46:21.912Z,20.27
2019-02-19T10:48:49.320Z,16.80
2019-02-19T10:51:16.609Z,17.57
2019-02-19T10:53:43.834Z,18.20
2019-02-19T10:56:11.074Z,19.00
2019-02-19T10:58:38.475Z,17.60
2019-02-19T11:01:05.763Z,14.43
2019-02-19T11:03:32.995Z,16.33
2019-02-19T11:06:00.481Z,15.47
2019-02-19T11:08:27.819Z,15.50
2019-02-19T11:10:55.262Z,15.53
2019-02-19T11:13:22.666Z,15.60
2019-02-19T11:15:49.910Z,14.80
2019-02-19T11:18:17.174Z,14.73
2019-02-19T11:20:44.502Z,14.90
2019-02-19T11:23:11.754Z,14.23
2019-02-19T11:25:39.038Z,13.90
2019-02-19T11:28:06.383Z,14.30
2019-02-19T11:30:33.727Z,15.40
2019-02-19T11:33:01.104Z,12.90
2019-02-19T11:35:28.503Z,13.77
2019-02-19T11:37:55.778Z,11.40
2019-02-19T11:40:23.081Z,10.60
2019-02-19T11:42:50.561Z,9.83
2019-02-19T11:45:18.059Z,10.40
2019-02-19T11:47:45.405Z,9.17
2019-02-19T11:50:13.080Z,9.50
2019-02-19T11:52:40.482Z,11.67
2019-02-19T11:55:09.314Z,9.47
2019-02-19T11:57:36.771Z,9.30
2019-02-19T12:00:06.129Z,10.83
2019-02-19T12:02:33.503Z,8.50
2019-02-19T12:05:00.743Z,9.23
2019-02-19T12:07:28.114Z,8.80
2019-02-19T12:09:55.436Z,7.83
2019-02-19T12:12:22.806Z,7.97
2019-02-19T12:14:50.105Z,8.63
2019-02-19T12:17:17.428Z,10.10
2019-02-19T12:19:44.879Z,9.90
2019-02-19T12:22:12.258Z,10.00
2019-02-19T12:24:39.677Z,10.77
2019-02-19T12:27:08.856Z,10.13
2019-02-19T12:29:36.481Z,10.80
2019-02-19T12:32:03.762Z,10.33
2019-02-19T12:34:31.027Z,11.20
2019-02-19T12:36:58.514Z,11.50
2019-02-19T12:39:25.757Z,11.00
2019-02-19T12:41:53.077Z,13.47
2019-02-19T12:44:20.345Z,12.60
2019-02-19T12:46:47.605Z,13.30
2019-02-19T12:49:16.444Z,13.07
2019-02-19T12:51:44.106Z,13.47
2019-02-19T12:54:11.518Z,13.73
2019-02-19T12:56:38.762Z,16.83
2019-02-19T12:59:06.122Z,17.00
2019-02-19T13:01:33.383Z,15.07
2019-02-19T13:04:00.726Z,14.80
2019-02-19T13:06:28.073Z,13.90
2019-02-19T13:08:55.342Z,16.10
2019-02-19T13:11:22.626Z,15.50
2019-02-19T13:13:49.862Z,16.90
2019-02-19T13:16:17.268Z,17.07
2019-02-19T13:18:44.653Z,15.60
2019-02-19T13:21:11.911Z,15.30
2019-02-19T13:23:39.233Z,16.03
2019-02-19T13:26:06.480Z,15.07
2019-02-19T13:28:33.762Z,15.47
2019-02-19T13:31:01.269Z,17.40
2019-02-19T13:33:28.614Z,15.77
2019-02-19T13:35:55.855Z,14.90
2019-02-19T13:38:23.102Z,15.20
2019-02-19T13:40:50.438Z,14.63
2019-02-19T13:43:18.479Z,14.50
2019-02-19T13:45:46.229Z,14.53
2019-02-19T13:48:13.638Z,15.50
2019-02-19T13:50:40.983Z,17.93
2019-02-19T13:53:22.075Z,14.83
2019-02-19T13:55:52.263Z,13.67
2019-02-19T13:58:19.529Z,14.80
2019-02-19T14:00:47.592Z,16.33
2019-02-19T14:03:14.984Z,13.17
2019-02-19T14:05:44.006Z,12.17
2019-02-19T14:08:14.521Z,10.33
2019-02-19T14:10:40.529Z,10.20
2019-02-19T14:13:07.793Z,9.60
2019-02-19T14:15:53.192Z,8.30
2019-02-19T14:18:26.658Z,11.30
2019-02-19T14:21:18.117Z,12.43
2019-02-19T14:24:09.944Z,11.20
2019-02-19T14:26:56.805Z,9.70
2019-02-19T14:29:52.557Z,8.10
2019-02-19T14:32:39.081Z,7.63
2019-02-19T14:35:41.278Z,7.27
2019-02-19T14:38:27.045Z,7.73
2019-02-19T14:41:07.689Z,7.03
2019-02-19T14:43:54.598Z,7.40
2019-02-19T14:46:37.245Z,6.87
2019-02-19T14:49:37.326Z,7.10
2019-02-19T14:52:21.132Z,8.03
2019-02-19T14:55:06.294Z,8.23
2019-02-19T14:57:51.549Z,8.27
2019-02-19T15:00:46.326Z,9.27
2019-02-19T15:03:33.191Z,7.13
2019-02-19T15:06:13.723Z,7.13
2019-02-19T15:09:18.773Z,8.37
2019-02-19T15:11:59.222Z,6.63
2019-02-19T15:14:44.827Z,16.17
2019-02-19T15:17:40.714Z,14.10
2019-02-19T15:20:39.702Z,18.60
2019-02-19T15:23:34.362Z,9.00
2019-02-19T15:26:18.658Z,9.57
2019-02-19T15:29:11.123Z,5.97
2019-02-19T15:32:12.979Z,5.50
2019-02-19T15:35:08.681Z,7.00
2019-02-19T15:37:49.738Z,4.50
2019-02-19T15:40:28.205Z,5.40
2019-02-19T15:43:24.367Z,4.43
2019-02-19T15:46:16.966Z,4.90
2019-02-19T15:49:18.980Z,4.87
2019-02-19T15:52:04.714Z,5.07
2019-02-19T15:54:55.294Z,4.70
2019-02-19T15:58:04.542Z,6.17
2019-02-19T16:01:04.915Z,5.33
2019-02-19T16:03:48.318Z,5.80
2019-02-19T16:06:21.185Z,5.97
2019-02-19T16:09:11.458Z,6.03
2019-02-19T16:11:52.540Z,5.50
2019-02-19T16:14:45.222Z,5.40
2019-02-19T16:17:34.893Z,5.70
2019-02-19T16:20:15.022Z,5.90
2019-02-19T16:23:01.955Z,5.57
2019-02-19T16:25:44.330Z,7.10
2019-02-19T16:28:25.815Z,6.43
2019-02-19T16:31:02.430Z,6.43
2019-02-19T16:33:52.150Z,6.03
2019-02-19T16:36:36.216Z,6.33
2019-02-19T16:39:27.206Z,5.53
2019-02-19T16:42:12.706Z,6.37
2019-02-19T16:45:17.033Z,6.00
2019-02-19T16:48:12.774Z,7.23
2019-02-19T16:51:02.465Z,7.40
2019-02-19T16:54:07.487Z,6.80
2019-02-19T16:56:50.462Z,6.43
2019-02-19T16:59:37.714Z,9.77
2019-02-19T17:02:19.286Z,9.40
2019-02-19T17:05:11.802Z,8.43
2019-02-19T17:07:44.594Z,9.90
2019-02-19T17:10:19.057Z,10.17
2019-02-19T17:13:04.082Z,13.77
2019-02-19T17:16:00.063Z,14.67
2019-02-19T17:18:33.816Z,11.40
2019-02-19T17:21:23.467Z,18.00
2019-02-19T17:24:08.985Z,13.90
2019-02-19T17:27:10.689Z,9.80
2019-02-19T17:29:55.980Z,9.30
2019-02-19T17:32:38.026Z,9.10
2019-02-19T17:35:21.390Z,14.73
2019-02-19T17:38:23.703Z,13.10
2019-02-19T17:41:13.290Z,16.90
2019-02-19T17:44:00.198Z,18.50
2019-02-19T17:46:47.130Z,20.07
2019-02-19T17:49:25.428Z,14.03
2019-02-19T17:52:01.182Z,10.60
2019-02-19T17:54:48.205Z,11.40
2019-02-19T17:57:50.337Z,11.97
2019-02-19T18:00:32.487Z,11.20
2019-02-19T18:03:22.302Z,11.17
2019-02-19T18:05:57.934Z,9.60
2019-02-19T18:08:36.254Z,10.73
2019-02-19T18:11:41.378Z,12.53
2019-02-19T18:14:21.678Z,21.93
2019-02-19T18:17:04.831Z,15.00
2019-02-19T18:19:32.270Z,12.60
2019-02-19T18:21:59.622Z,10.57
2019-02-19T18:24:26.871Z,9.83
2019-02-19T18:26:54.150Z,9.97
2019-02-19T18:29:21.504Z,10.50
2019-02-19T18:31:48.951Z,10.13
2019-02-19T18:34:16.394Z,10.53
2019-02-19T18:36:43.637Z,10.80
2019-02-19T18:39:11.007Z,11.17
2019-02-19T18:41:38.270Z,11.87
2019-02-19T18:44:05.706Z,12.00
2019-02-19T18:46:32.971Z,10.90
2019-02-19T18:49:00.336Z,11.47
2019-02-19T18:51:27.594Z,11.20
2019-02-19T18:53:54.858Z,11.57
2019-02-19T18:56:22.090Z,11.60
2019-02-19T18:58:49.332Z,11.80
2019-02-19T19:01:16.579Z,12.10
2019-02-19T19:03:43.829Z,11.63
2019-02-19T19:06:11.448Z,11.10
2019-02-19T19:08:38.740Z,12.10
2019-02-19T19:11:06.085Z,12.03
2019-02-19T19:13:33.447Z,12.00
2019-02-19T19:16:00.723Z,12.50
2019-02-19T19:18:27.977Z,12.77
2019-02-19T19:20:55.316Z,13.53
2019-02-19T19:23:22.586Z,12.80
2019-02-19T19:25:49.979Z,17.57
2019-02-19T19:28:17.260Z,20.03
2019-02-19T19:30:44.650Z,17.47
2019-02-19T19:33:11.950Z,18.80
2019-02-19T19:35:39.226Z,15.73
2019-02-19T19:38:06.478Z,12.80
2019-02-19T19:40:33.687Z,14.70
2019-02-19T19:43:00.985Z,13.70
2019-02-19T19:45:28.424Z,13.07
2019-02-19T19:47:55.802Z,13.97
2019-02-19T19:50:23.062Z,14.37
2019-02-19T19:52:50.326Z,13.50
2019-02-19T19:55:17.554Z,15.07
2019-02-19T19:57:45.315Z,15.03
2019-02-19T20:00:12.657Z,14.67
2019-02-19T20:02:40.110Z,16.20
2019-02-19T20:05:07.506Z,16.30
2019-02-19T20:07:34.759Z,15.50
2019-02-19T20:10:02.118Z,16.50
2019-02-19T20:12:29.478Z,16.43
2019-02-19T20:14:56.793Z,14.70
2019-02-19T20:17:24.154Z,14.87
2019-02-19T20:19:51.660Z,21.80
2019-02-19T20:22:19.049Z,19.00
2019-02-19T20:24:46.271Z,20.47
2019-02-19T20:27:13.514Z,19.17
2019-02-19T20:29:40.767Z,27.07
2019-02-19T20:32:08.086Z,20.43
2019-02-19T20:34:35.359Z,18.93
2019-02-19T20:37:02.635Z,18.43
2019-02-19T20:39:30.033Z,16.43
2019-02-19T20:41:57.661Z,16.77
2019-02-19T20:44:25.012Z,16.63
2019-02-19T20:46:52.275Z,17.40
2019-02-19T20:49:19.566Z,16.20
2019-02-19T20:51:46.809Z,15.20
2019-02-19T20:54:14.187Z,15.93
2019-02-19T20:56:41.499Z,16.00
2019-02-19T20:59:08.846Z,16.53
2019-02-19T21:01:36.242Z,17.70
2019-02-19T21:04:03.653Z,16.10
2019-02-19T21:06:30.884Z,16.13
2019-02-19T21:08:58.126Z,15.90
2019-02-19T21:11:27.561Z,17.00
2019-02-19T21:13:54.776Z,16.30
2019-02-19T21:16:22.083Z,15.27
2019-02-19T21:18:49.384Z,16.67
2019-02-19T21:21:16.647Z,17.67
2019-02-19T21:23:43.864Z,17.37
2019-02-19T21:26:11.110Z,16.00
2019-02-19T21:28:38.464Z,15.40
2019-02-19T21:31:05.742Z,16.07
2019-02-19T21:33:33.016Z,16.03
2019-02-19T21:36:00.304Z,16.43
2019-02-19T21:38:27.579Z,16.27
2019-02-19T21:40:54.826Z,17.57
2019-02-19T21:43:22.182Z,16.23
2019-02-19T21:45:49.522Z,16.97
2019-02-19T21:48:16.786Z,17.13
2019-02-19T21:50:44.029Z,16.57
2019-02-19T21:53:11.313Z,16.30
2019-02-19T21:55:38.701Z,16.63
2019-02-19T21:58:05.954Z,16.20
2019-02-19T22:00:33.174Z,17.00
2019-02-19T22:03:00.662Z,16.27
2019-02-19T22:05:27.933Z,19.17
2019-02-19T22:07:55.411Z,19.43
2019-02-19T22:10:22.794Z,20.83
2019-02-19T22:12:50.167Z,19.10
2019-02-19T22:15:17.381Z,17.60
2019-02-19T22:17:44.644Z,18.37
2019-02-19T22:20:30.153Z,17.83
2019-02-19T22:22:57.510Z,19.43
2019-02-19T22:25:24.948Z,19.27
2019-02-19T22:27:52.226Z,20.37
2019-02-19T22:30:19.454Z,20.67
2019-02-19T22:32:46.790Z,20.77
2019-02-19T22:35:14.234Z,20.10
2019-02-19T22:37:41.670Z,19.73
2019-02-19T22:40:08.925Z,18.40
2019-02-19T22:42:38.565Z,16.60
2019-02-19T22:45:05.978Z,16.80
2019-02-19T22:47:33.245Z,17.53
2019-02-19T22:50:00.614Z,17.60
2019-02-19T22:52:27.879Z,16.93
2019-02-19T22:55:08.318Z,17.20
2019-02-19T22:57:35.629Z,17.47
2019-02-19T23:00:07.027Z,18.77
2019-02-19T23:02:34.408Z,16.47
2019-02-19T23:05:01.760Z,17.43
2019-02-19T23:07:29.159Z,16.17
2019-02-19T23:09:56.544Z,18.87
2019-02-19T23:12:23.813Z,16.70
2019-02-19T23:14:51.050Z,15.40
2019-02-19T23:17:18.315Z,15.50
2019-02-19T23:19:45.536Z,16.50
2019-02-19T23:22:21.182Z,14.80
2019-02-19T23:24:42.059Z,14.50
2019-02-19T23:27:09.326Z,15.13
2019-02-19T23:29:36.570Z,14.47
2019-02-19T23:32:03.835Z,16.37
2019-02-19T23:34:31.082Z,15.40
2019-02-19T23:37:10.169Z,15.40
2019-02-19T23:39:43.428Z,15.03
2019-02-19T23:42:06.614Z,14.93
2019-02-19T23:44:34.025Z,14.70
2019-02-19T23:47:01.363Z,16.23
2019-02-19T23:49:28.602Z,13.50
2019-02-19T23:51:55.957Z,14.90
2019-02-19T23:54:23.297Z,15.07
2019-02-19T23:56:50.566Z,14.43
2019-02-19T23:59:17.838Z,14.40
